sensor_id;sensor_type;location;lat;lon;timestamp;P1;durP1;ratioP1;P2;durP2;ratioP2
13102;SDS011;52970;46.752;17.108;2022-08-03T00:01:14;2.38;;;2.00;;
13102;SDS011;52970;46.752;17.108;2022-08-03T00:03:42;2.00;;;1.90;;
13102;SDS011;52970;46.752;17.108;2022-08-03T00:06:07;2.00;;;1.90;;
13102;SDS011;52970;46.752;17.108;2022-08-03T00:08:33;2.20;;;1.98;;
13102;SDS011;52970;46.752;17.108;2022-08-03T00:10:58;2.92;;;2.20;;
13102;SDS011;52970;46.752;17.108;2022-08-03T00:13:24;1.98;;;1.88;;
13102;SDS011;52970;46.752;17.108;2022-08-03T00:15:49;1.92;;;1.83;;
13102;SDS011;52970;46.752;17.108;2022-08-03T00:18:14;3.97;;;2.35;;
13102;SDS011;52970;46.752;17.108;2022-08-03T00:20:40;2.08;;;1.85;;
13102;SDS011;52970;46.752;17.108;2022-08-03T00:23:05;2.50;;;2.25;;
13102;SDS011;52970;46.752;17.108;2022-08-03T00:25:31;2.15;;;1.95;;
13102;SDS011;52970;46.752;17.108;2022-08-03T00:27:56;4.25;;;1.90;;
13102;SDS011;52970;46.752;17.108;2022-08-03T00:30:22;2.50;;;2.30;;
13102;SDS011;52970;46.752;17.108;2022-08-03T00:32:47;2.50;;;2.30;;
13102;SDS011;52970;46.752;17.108;2022-08-03T00:35:12;2.38;;;2.22;;
13102;SDS011;52970;46.752;17.108;2022-08-03T00:37:38;2.22;;;2.03;;
13102;SDS011;52970;46.752;17.108;2022-08-03T00:40:03;3.00;;;2.70;;
13102;SDS011;52970;46.752;17.108;2022-08-03T00:42:29;4.53;;;2.63;;
13102;SDS011;52970;46.752;17.108;2022-08-03T00:44:54;6.20;;;3.75;;
13102;SDS011;52970;46.752;17.108;2022-08-03T00:47:19;4.43;;;3.13;;
13102;SDS011;52970;46.752;17.108;2022-08-03T00:49:45;5.22;;;3.30;;
13102;SDS011;52970;46.752;17.108;2022-08-03T00:52:10;4.97;;;3.40;;
13102;SDS011;52970;46.752;17.108;2022-08-03T00:54:37;5.53;;;3.33;;
13102;SDS011;52970;46.752;17.108;2022-08-03T00:57:03;5.03;;;3.58;;
13102;SDS011;52970;46.752;17.108;2022-08-03T00:59:29;6.45;;;3.83;;
13102;SDS011;52970;46.752;17.108;2022-08-03T01:01:54;5.35;;;3.30;;
13102;SDS011;52970;46.752;17.108;2022-08-03T01:04:19;4.68;;;3.20;;
13102;SDS011;52970;46.752;17.108;2022-08-03T01:06:48;3.92;;;3.47;;
13102;SDS011;52970;46.752;17.108;2022-08-03T01:09:17;4.32;;;3.90;;
13102;SDS011;52970;46.752;17.108;2022-08-03T01:14:14;5.13;;;3.05;;
13102;SDS011;52970;46.752;17.108;2022-08-03T01:22:39;4.10;;;2.53;;
13102;SDS011;52970;46.752;17.108;2022-08-03T01:30:05;5.32;;;3.28;;
13102;SDS011;52970;46.752;17.108;2022-08-03T01:35:01;3.05;;;2.85;;
13102;SDS011;52970;46.752;17.108;2022-08-03T01:37:31;5.18;;;3.60;;
13102;SDS011;52970;46.752;17.108;2022-08-03T01:39:56;3.35;;;3.08;;
13102;SDS011;52970;46.752;17.108;2022-08-03T01:42:22;4.53;;;3.00;;
13102;SDS011;52970;46.752;17.108;2022-08-03T01:44:48;3.15;;;2.85;;
13102;SDS011;52970;46.752;17.108;2022-08-03T01:47:16;2.60;;;2.40;;
13102;SDS011;52970;46.752;17.108;2022-08-03T01:49:44;3.30;;;3.00;;
13102;SDS011;52970;46.752;17.108;2022-08-03T01:52:09;2.78;;;2.58;;
13102;SDS011;52970;46.752;17.108;2022-08-03T01:54:36;3.20;;;2.90;;
13102;SDS011;52970;46.752;17.108;2022-08-03T01:57:04;3.90;;;2.90;;
13102;SDS011;52970;46.752;17.108;2022-08-03T01:59:31;4.00;;;2.88;;
13102;SDS011;52970;46.752;17.108;2022-08-03T02:01:58;4.78;;;3.00;;
13102;SDS011;52970;46.752;17.108;2022-08-03T02:04:24;4.85;;;2.80;;
13102;SDS011;52970;46.752;17.108;2022-08-03T02:06:50;5.25;;;3.35;;
13102;SDS011;52970;46.752;17.108;2022-08-03T02:09:16;5.55;;;3.08;;
13102;SDS011;52970;46.752;17.108;2022-08-03T02:11:43;2.80;;;2.60;;
13102;SDS011;52970;46.752;17.108;2022-08-03T02:14:11;4.72;;;2.95;;
13102;SDS011;52970;46.752;17.108;2022-08-03T02:16:38;3.72;;;3.38;;
13102;SDS011;52970;46.752;17.108;2022-08-03T02:19:04;2.70;;;2.50;;
13102;SDS011;52970;46.752;17.108;2022-08-03T02:27:38;3.20;;;2.92;;
13102;SDS011;52970;46.752;17.108;2022-08-03T02:33:10;4.13;;;2.70;;
13102;SDS011;52970;46.752;17.108;2022-08-03T02:35:36;3.22;;;2.53;;
13102;SDS011;52970;46.752;17.108;2022-08-03T02:38:04;2.88;;;2.65;;
13102;SDS011;52970;46.752;17.108;2022-08-03T02:40:30;3.47;;;2.95;;
13102;SDS011;52970;46.752;17.108;2022-08-03T02:42:59;3.05;;;2.85;;
13102;SDS011;52970;46.752;17.108;2022-08-03T02:45:26;4.25;;;3.38;;
13102;SDS011;52970;46.752;17.108;2022-08-03T02:47:54;9.35;;;3.15;;
13102;SDS011;52970;46.752;17.108;2022-08-03T02:50:21;3.65;;;3.05;;
13102;SDS011;52970;46.752;17.108;2022-08-03T02:52:47;3.03;;;2.83;;
13102;SDS011;52970;46.752;17.108;2022-08-03T02:55:13;3.58;;;3.20;;
13102;SDS011;52970;46.752;17.108;2022-08-03T02:57:40;3.15;;;2.88;;
13102;SDS011;52970;46.752;17.108;2022-08-03T03:00:07;3.92;;;3.28;;
13102;SDS011;52970;46.752;17.108;2022-08-03T03:02:33;3.03;;;2.83;;
13102;SDS011;52970;46.752;17.108;2022-08-03T03:04:59;3.08;;;2.88;;
13102;SDS011;52970;46.752;17.108;2022-08-03T03:07:25;3.53;;;2.95;;
13102;SDS011;52970;46.752;17.108;2022-08-03T03:09:51;4.65;;;3.10;;
13102;SDS011;52970;46.752;17.108;2022-08-03T03:12:16;3.50;;;3.20;;
13102;SDS011;52970;46.752;17.108;2022-08-03T03:14:42;5.90;;;3.72;;
13102;SDS011;52970;46.752;17.108;2022-08-03T03:17:08;4.75;;;4.15;;
13102;SDS011;52970;46.752;17.108;2022-08-03T03:19:34;4.13;;;3.72;;
13102;SDS011;52970;46.752;17.108;2022-08-03T03:22:01;3.90;;;3.47;;
13102;SDS011;52970;46.752;17.108;2022-08-03T03:24:28;4.20;;;3.80;;
13102;SDS011;52970;46.752;17.108;2022-08-03T03:26:54;3.67;;;3.38;;
13102;SDS011;52970;46.752;17.108;2022-08-03T03:29:20;4.10;;;3.70;;
13102;SDS011;52970;46.752;17.108;2022-08-03T03:31:46;3.78;;;2.83;;
13102;SDS011;52970;46.752;17.108;2022-08-03T03:34:11;3.55;;;3.25;;
13102;SDS011;52970;46.752;17.108;2022-08-03T03:36:37;3.97;;;3.30;;
13102;SDS011;52970;46.752;17.108;2022-08-03T03:39:02;4.30;;;3.53;;
13102;SDS011;52970;46.752;17.108;2022-08-03T03:41:27;4.00;;;3.25;;
13102;SDS011;52970;46.752;17.108;2022-08-03T03:43:53;4.38;;;3.50;;
13102;SDS011;52970;46.752;17.108;2022-08-03T03:46:18;5.53;;;3.72;;
13102;SDS011;52970;46.752;17.108;2022-08-03T03:48:44;3.58;;;3.38;;
13102;SDS011;52970;46.752;17.108;2022-08-03T03:51:09;6.00;;;3.63;;
13102;SDS011;52970;46.752;17.108;2022-08-03T03:53:34;5.78;;;3.85;;
13102;SDS011;52970;46.752;17.108;2022-08-03T03:56:00;3.58;;;3.28;;
13102;SDS011;52970;46.752;17.108;2022-08-03T03:58:25;3.97;;;3.67;;
13102;SDS011;52970;46.752;17.108;2022-08-03T04:00:50;3.80;;;3.50;;
13102;SDS011;52970;46.752;17.108;2022-08-03T04:03:17;3.40;;;3.15;;
13102;SDS011;52970;46.752;17.108;2022-08-03T04:05:43;4.75;;;3.30;;
13102;SDS011;52970;46.752;17.108;2022-08-03T04:08:27;6.13;;;4.28;;
13102;SDS011;52970;46.752;17.108;2022-08-03T04:13:41;3.53;;;3.33;;
13102;SDS011;52970;46.752;17.108;2022-08-03T04:16:08;3.40;;;3.10;;
13102;SDS011;52970;46.752;17.108;2022-08-03T04:18:34;3.55;;;3.25;;
13102;SDS011;52970;46.752;17.108;2022-08-03T04:21:03;4.10;;;3.75;;
13102;SDS011;52970;46.752;17.108;2022-08-03T04:23:30;4.25;;;3.85;;
13102;SDS011;52970;46.752;17.108;2022-08-03T04:25:57;4.35;;;3.70;;
13102;SDS011;52970;46.752;17.108;2022-08-03T04:28:23;4.60;;;3.70;;
13102;SDS011;52970;46.752;17.108;2022-08-03T04:30:48;3.85;;;3.45;;
13102;SDS011;52970;46.752;17.108;2022-08-03T04:33:15;4.10;;;3.80;;
13102;SDS011;52970;46.752;17.108;2022-08-03T04:35:41;3.80;;;3.50;;
13102;SDS011;52970;46.752;17.108;2022-08-03T04:38:08;3.63;;;3.42;;
13102;SDS011;52970;46.752;17.108;2022-08-03T04:40:35;3.92;;;3.63;;
13102;SDS011;52970;46.752;17.108;2022-08-03T04:43:01;4.60;;;3.28;;
13102;SDS011;52970;46.752;17.108;2022-08-03T04:45:27;4.72;;;3.55;;
13102;SDS011;52970;46.752;17.108;2022-08-03T04:47:54;5.50;;;3.55;;
13102;SDS011;52970;46.752;17.108;2022-08-03T04:50:20;4.10;;;3.70;;
13102;SDS011;52970;46.752;17.108;2022-08-03T04:52:45;3.58;;;3.28;;
13102;SDS011;52970;46.752;17.108;2022-08-03T04:55:11;3.30;;;3.10;;
13102;SDS011;52970;46.752;17.108;2022-08-03T04:57:36;3.85;;;3.55;;
13102;SDS011;52970;46.752;17.108;2022-08-03T05:00:02;3.35;;;3.00;;
13102;SDS011;52970;46.752;17.108;2022-08-03T05:02:28;3.72;;;3.28;;
13102;SDS011;52970;46.752;17.108;2022-08-03T05:04:54;4.47;;;3.20;;
13102;SDS011;52970;46.752;17.108;2022-08-03T05:07:19;3.70;;;3.30;;
13102;SDS011;52970;46.752;17.108;2022-08-03T05:09:44;3.45;;;3.25;;
13102;SDS011;52970;46.752;17.108;2022-08-03T05:12:09;3.97;;;3.55;;
13102;SDS011;52970;46.752;17.108;2022-08-03T05:14:36;3.53;;;3.20;;
13102;SDS011;52970;46.752;17.108;2022-08-03T05:17:05;4.47;;;3.47;;
13102;SDS011;52970;46.752;17.108;2022-08-03T05:19:31;4.10;;;3.80;;
13102;SDS011;52970;46.752;17.108;2022-08-03T05:21:56;3.72;;;3.42;;
13102;SDS011;52970;46.752;17.108;2022-08-03T05:24:22;4.85;;;4.00;;
13102;SDS011;52970;46.752;17.108;2022-08-03T05:26:47;3.90;;;3.47;;
13102;SDS011;52970;46.752;17.108;2022-08-03T05:29:12;4.55;;;4.18;;
13102;SDS011;52970;46.752;17.108;2022-08-03T05:31:38;4.90;;;4.50;;
13102;SDS011;52970;46.752;17.108;2022-08-03T05:34:04;5.43;;;4.50;;
13102;SDS011;52970;46.752;17.108;2022-08-03T05:36:29;4.20;;;3.80;;
13102;SDS011;52970;46.752;17.108;2022-08-03T05:38:55;5.50;;;3.78;;
13102;SDS011;52970;46.752;17.108;2022-08-03T05:41:20;4.60;;;4.15;;
13102;SDS011;52970;46.752;17.108;2022-08-03T05:43:45;4.85;;;3.78;;
13102;SDS011;52970;46.752;17.108;2022-08-03T05:46:11;4.15;;;3.75;;
13102;SDS011;52970;46.752;17.108;2022-08-03T05:48:36;4.07;;;3.67;;
13102;SDS011;52970;46.752;17.108;2022-08-03T05:51:02;3.80;;;3.42;;
13102;SDS011;52970;46.752;17.108;2022-08-03T05:53:31;3.78;;;3.40;;
13102;SDS011;52970;46.752;17.108;2022-08-03T05:55:57;3.80;;;3.50;;
13102;SDS011;52970;46.752;17.108;2022-08-03T05:58:22;3.75;;;3.40;;
13102;SDS011;52970;46.752;17.108;2022-08-03T06:00:47;3.53;;;3.33;;
13102;SDS011;52970;46.752;17.108;2022-08-03T06:03:13;3.20;;;2.90;;
13102;SDS011;52970;46.752;17.108;2022-08-03T06:05:38;3.88;;;2.95;;
13102;SDS011;52970;46.752;17.108;2022-08-03T06:08:03;3.40;;;3.10;;
13102;SDS011;52970;46.752;17.108;2022-08-03T06:10:29;3.25;;;3.03;;
13102;SDS011;52970;46.752;17.108;2022-08-03T06:12:54;10.73;;;3.05;;
13102;SDS011;52970;46.752;17.108;2022-08-03T06:15:20;4.03;;;2.90;;
13102;SDS011;52970;46.752;17.108;2022-08-03T06:17:49;3.65;;;3.28;;
13102;SDS011;52970;46.752;17.108;2022-08-03T06:20:16;3.05;;;2.85;;
13102;SDS011;52970;46.752;17.108;2022-08-03T06:22:41;4.93;;;3.10;;
13102;SDS011;52970;46.752;17.108;2022-08-03T06:25:07;4.75;;;2.75;;
13102;SDS011;52970;46.752;17.108;2022-08-03T06:27:32;3.50;;;3.05;;
13102;SDS011;52970;46.752;17.108;2022-08-03T06:29:57;3.20;;;3.00;;
13102;SDS011;52970;46.752;17.108;2022-08-03T06:32:23;3.30;;;3.10;;
13102;SDS011;52970;46.752;17.108;2022-08-03T06:34:48;4.13;;;2.63;;
13102;SDS011;52970;46.752;17.108;2022-08-03T06:37:13;3.13;;;2.90;;
13102;SDS011;52970;46.752;17.108;2022-08-03T06:39:39;3.35;;;2.65;;
13102;SDS011;52970;46.752;17.108;2022-08-03T06:42:04;3.00;;;2.70;;
13102;SDS011;52970;46.752;17.108;2022-08-03T06:44:29;3.55;;;3.05;;
13102;SDS011;52970;46.752;17.108;2022-08-03T06:46:55;3.03;;;2.72;;
13102;SDS011;52970;46.752;17.108;2022-08-03T06:49:20;3.03;;;2.65;;
13102;SDS011;52970;46.752;17.108;2022-08-03T06:51:46;3.10;;;2.80;;
13102;SDS011;52970;46.752;17.108;2022-08-03T06:54:11;3.25;;;2.70;;
13102;SDS011;52970;46.752;17.108;2022-08-03T06:56:36;2.80;;;2.60;;
13102;SDS011;52970;46.752;17.108;2022-08-03T06:59:02;3.03;;;2.70;;
13102;SDS011;52970;46.752;17.108;2022-08-03T07:01:27;2.95;;;2.60;;
13102;SDS011;52970;46.752;17.108;2022-08-03T07:03:52;3.00;;;2.80;;
13102;SDS011;52970;46.752;17.108;2022-08-03T07:06:18;2.92;;;2.65;;
13102;SDS011;52970;46.752;17.108;2022-08-03T07:08:44;3.53;;;2.75;;
13102;SDS011;52970;46.752;17.108;2022-08-03T07:11:09;2.72;;;2.53;;
13102;SDS011;52970;46.752;17.108;2022-08-03T07:13:34;3.42;;;3.03;;
13102;SDS011;52970;46.752;17.108;2022-08-03T07:16:00;3.00;;;2.70;;
13102;SDS011;52970;46.752;17.108;2022-08-03T07:18:25;3.08;;;2.88;;
13102;SDS011;52970;46.752;17.108;2022-08-03T07:20:50;4.18;;;3.03;;
13102;SDS011;52970;46.752;17.108;2022-08-03T07:23:16;3.13;;;2.83;;
13102;SDS011;52970;46.752;17.108;2022-08-03T07:25:41;3.25;;;2.97;;
13102;SDS011;52970;46.752;17.108;2022-08-03T07:28:06;3.20;;;2.90;;
13102;SDS011;52970;46.752;17.108;2022-08-03T07:30:32;3.10;;;2.88;;
13102;SDS011;52970;46.752;17.108;2022-08-03T07:32:57;3.08;;;2.78;;
13102;SDS011;52970;46.752;17.108;2022-08-03T07:35:23;3.03;;;2.80;;
13102;SDS011;52970;46.752;17.108;2022-08-03T07:37:48;4.28;;;3.00;;
13102;SDS011;52970;46.752;17.108;2022-08-03T07:40:14;3.15;;;2.85;;
13102;SDS011;52970;46.752;17.108;2022-08-03T07:42:41;3.53;;;2.60;;
13102;SDS011;52970;46.752;17.108;2022-08-03T07:45:07;3.03;;;2.70;;
13102;SDS011;52970;46.752;17.108;2022-08-03T07:47:32;3.67;;;3.25;;
13102;SDS011;52970;46.752;17.108;2022-08-03T07:49:58;4.43;;;2.70;;
13102;SDS011;52970;46.752;17.108;2022-08-03T07:52:24;4.22;;;2.90;;
13102;SDS011;52970;46.752;17.108;2022-08-03T07:55:08;3.40;;;2.70;;
13102;SDS011;52970;46.752;17.108;2022-08-03T07:57:34;2.70;;;2.50;;
13102;SDS011;52970;46.752;17.108;2022-08-03T07:59:59;2.95;;;2.70;;
13102;SDS011;52970;46.752;17.108;2022-08-03T08:02:25;2.88;;;2.67;;
13102;SDS011;52970;46.752;17.108;2022-08-03T08:04:50;3.03;;;2.83;;
13102;SDS011;52970;46.752;17.108;2022-08-03T08:07:15;3.70;;;3.03;;
13102;SDS011;52970;46.752;17.108;2022-08-03T08:09:41;3.22;;;2.90;;
13102;SDS011;52970;46.752;17.108;2022-08-03T08:12:06;3.15;;;2.92;;
13102;SDS011;52970;46.752;17.108;2022-08-03T08:14:33;2.97;;;2.78;;
13102;SDS011;52970;46.752;17.108;2022-08-03T08:16:58;3.17;;;2.78;;
13102;SDS011;52970;46.752;17.108;2022-08-03T08:19:23;3.40;;;2.90;;
13102;SDS011;52970;46.752;17.108;2022-08-03T08:21:48;3.88;;;3.08;;
13102;SDS011;52970;46.752;17.108;2022-08-03T08:24:14;3.20;;;2.90;;
13102;SDS011;52970;46.752;17.108;2022-08-03T08:26:39;3.30;;;3.00;;
13102;SDS011;52970;46.752;17.108;2022-08-03T08:29:04;2.97;;;2.78;;
13102;SDS011;52970;46.752;17.108;2022-08-03T08:31:30;2.78;;;2.58;;
13102;SDS011;52970;46.752;17.108;2022-08-03T08:33:56;3.15;;;2.75;;
13102;SDS011;52970;46.752;17.108;2022-08-03T08:36:21;2.97;;;2.60;;
13102;SDS011;52970;46.752;17.108;2022-08-03T08:38:47;2.83;;;2.63;;
13102;SDS011;52970;46.752;17.108;2022-08-03T08:41:12;2.80;;;2.60;;
13102;SDS011;52970;46.752;17.108;2022-08-03T08:43:38;3.50;;;2.55;;
13102;SDS011;52970;46.752;17.108;2022-08-03T08:46:04;3.90;;;2.78;;
13102;SDS011;52970;46.752;17.108;2022-08-03T08:48:32;2.78;;;2.60;;
13102;SDS011;52970;46.752;17.108;2022-08-03T08:50:57;2.83;;;2.63;;
13102;SDS011;52970;46.752;17.108;2022-08-03T08:53:25;2.35;;;2.25;;
13102;SDS011;52970;46.752;17.108;2022-08-03T08:55:51;2.75;;;2.55;;
13102;SDS011;52970;46.752;17.108;2022-08-03T08:58:18;3.75;;;2.95;;
13102;SDS011;52970;46.752;17.108;2022-08-03T09:00:46;2.63;;;2.45;;
13102;SDS011;52970;46.752;17.108;2022-08-03T09:03:12;2.90;;;2.70;;
13102;SDS011;52970;46.752;17.108;2022-08-03T09:05:38;2.63;;;2.47;;
13102;SDS011;52970;46.752;17.108;2022-08-03T09:08:06;3.13;;;2.53;;
13102;SDS011;52970;46.752;17.108;2022-08-03T09:10:31;2.85;;;2.33;;
13102;SDS011;52970;46.752;17.108;2022-08-03T09:12:58;2.83;;;2.50;;
13102;SDS011;52970;46.752;17.108;2022-08-03T09:15:25;3.40;;;2.50;;
13102;SDS011;52970;46.752;17.108;2022-08-03T09:17:51;2.63;;;2.42;;
13102;SDS011;52970;46.752;17.108;2022-08-03T09:20:18;5.63;;;2.53;;
13102;SDS011;52970;46.752;17.108;2022-08-03T09:28:03;2.10;;;2.00;;
13102;SDS011;52970;46.752;17.108;2022-08-03T09:30:28;2.10;;;2.00;;
13102;SDS011;52970;46.752;17.108;2022-08-03T09:32:58;2.55;;;2.33;;
13102;SDS011;52970;46.752;17.108;2022-08-03T09:35:27;2.10;;;2.00;;
13102;SDS011;52970;46.752;17.108;2022-08-03T09:38:11;2.28;;;2.15;;
13102;SDS011;52970;46.752;17.108;2022-08-03T09:40:37;2.15;;;1.95;;
13102;SDS011;52970;46.752;17.108;2022-08-03T09:43:02;2.55;;;2.08;;
13102;SDS011;52970;46.752;17.108;2022-08-03T09:45:27;2.47;;;2.00;;
13102;SDS011;52970;46.752;17.108;2022-08-03T09:47:54;2.53;;;2.15;;
13102;SDS011;52970;46.752;17.108;2022-08-03T09:50:20;2.65;;;2.25;;
13102;SDS011;52970;46.752;17.108;2022-08-03T09:52:46;2.25;;;2.08;;
13102;SDS011;52970;46.752;17.108;2022-08-03T09:55:13;3.55;;;2.22;;
13102;SDS011;52970;46.752;17.108;2022-08-03T09:57:39;1.80;;;1.70;;
13102;SDS011;52970;46.752;17.108;2022-08-03T10:00:14;2.30;;;2.15;;
13102;SDS011;52970;46.752;17.108;2022-08-03T10:02:40;2.22;;;2.00;;
13102;SDS011;52970;46.752;17.108;2022-08-03T10:05:07;2.03;;;1.83;;
13102;SDS011;52970;46.752;17.108;2022-08-03T10:07:45;2.40;;;2.03;;
13102;SDS011;52970;46.752;17.108;2022-08-03T10:10:11;1.98;;;1.88;;
13102;SDS011;52970;46.752;17.108;2022-08-03T10:12:37;2.17;;;1.98;;
13102;SDS011;52970;46.752;17.108;2022-08-03T10:15:03;2.80;;;2.10;;
13102;SDS011;52970;46.752;17.108;2022-08-03T10:17:28;2.30;;;2.10;;
13102;SDS011;52970;46.752;17.108;2022-08-03T10:19:54;2.20;;;2.00;;
13102;SDS011;52970;46.752;17.108;2022-08-03T10:22:22;2.00;;;1.90;;
13102;SDS011;52970;46.752;17.108;2022-08-03T10:24:51;2.35;;;2.00;;
13102;SDS011;52970;46.752;17.108;2022-08-03T10:27:17;2.00;;;1.90;;
13102;SDS011;52970;46.752;17.108;2022-08-03T10:29:44;2.08;;;1.83;;
13102;SDS011;52970;46.752;17.108;2022-08-03T10:32:12;3.05;;;2.00;;
13102;SDS011;52970;46.752;17.108;2022-08-03T10:34:40;2.20;;;1.95;;
13102;SDS011;52970;46.752;17.108;2022-08-03T10:37:08;1.98;;;1.83;;
13102;SDS011;52970;46.752;17.108;2022-08-03T10:39:34;2.38;;;1.90;;
13102;SDS011;52970;46.752;17.108;2022-08-03T10:42:00;2.05;;;1.83;;
13102;SDS011;52970;46.752;17.108;2022-08-03T10:44:27;1.83;;;1.73;;
13102;SDS011;52970;46.752;17.108;2022-08-03T10:46:54;1.90;;;1.80;;
13102;SDS011;52970;46.752;17.108;2022-08-03T10:49:20;2.17;;;1.90;;
13102;SDS011;52970;46.752;17.108;2022-08-03T10:51:46;1.95;;;1.83;;
13102;SDS011;52970;46.752;17.108;2022-08-03T10:56:55;2.00;;;1.90;;
13102;SDS011;52970;46.752;17.108;2022-08-03T11:02:11;1.98;;;1.88;;
13102;SDS011;52970;46.752;17.108;2022-08-03T11:04:37;2.25;;;2.10;;
13102;SDS011;52970;46.752;17.108;2022-08-03T11:09:44;1.85;;;1.75;;
13102;SDS011;52970;46.752;17.108;2022-08-03T11:14:47;2.60;;;2.00;;
13102;SDS011;52970;46.752;17.108;2022-08-03T11:17:12;1.85;;;1.75;;
13102;SDS011;52970;46.752;17.108;2022-08-03T11:19:48;2.08;;;1.95;;
13102;SDS011;52970;46.752;17.108;2022-08-03T11:22:13;3.63;;;2.22;;
13102;SDS011;52970;46.752;17.108;2022-08-03T11:30:05;2.10;;;2.00;;
13102;SDS011;52970;46.752;17.108;2022-08-03T11:37:35;2.30;;;2.00;;
13102;SDS011;52970;46.752;17.108;2022-08-03T11:40:00;1.98;;;1.88;;
13102;SDS011;52970;46.752;17.108;2022-08-03T11:44:56;1.92;;;1.83;;
13102;SDS011;52970;46.752;17.108;2022-08-03T11:47:22;3.08;;;2.30;;
13102;SDS011;52970;46.752;17.108;2022-08-03T11:49:49;1.92;;;1.83;;
13102;SDS011;52970;46.752;17.108;2022-08-03T11:52:17;2.10;;;2.00;;
13102;SDS011;52970;46.752;17.108;2022-08-03T11:54:43;1.98;;;1.88;;
13102;SDS011;52970;46.752;17.108;2022-08-03T11:57:09;2.10;;;1.90;;
13102;SDS011;52970;46.752;17.108;2022-08-03T11:59:34;2.30;;;2.13;;
13102;SDS011;52970;46.752;17.108;2022-08-03T12:02:08;1.90;;;1.80;;
13102;SDS011;52970;46.752;17.108;2022-08-03T12:04:52;2.35;;;2.00;;
13102;SDS011;52970;46.752;17.108;2022-08-03T12:07:18;2.08;;;1.98;;
13102;SDS011;52970;46.752;17.108;2022-08-03T12:09:43;2.53;;;1.80;;
13102;SDS011;52970;46.752;17.108;2022-08-03T12:12:26;1.85;;;1.75;;
13102;SDS011;52970;46.752;17.108;2022-08-03T12:14:51;1.98;;;1.88;;
13102;SDS011;52970;46.752;17.108;2022-08-03T12:17:16;1.85;;;1.75;;
13102;SDS011;52970;46.752;17.108;2022-08-03T12:19:42;1.98;;;1.88;;
13102;SDS011;52970;46.752;17.108;2022-08-03T12:22:08;3.75;;;1.92;;
13102;SDS011;52970;46.752;17.108;2022-08-03T12:24:40;1.92;;;1.83;;
13102;SDS011;52970;46.752;17.108;2022-08-03T12:27:05;3.60;;;2.00;;
13102;SDS011;52970;46.752;17.108;2022-08-03T12:29:31;2.38;;;1.95;;
13102;SDS011;52970;46.752;17.108;2022-08-03T12:31:56;1.85;;;1.75;;
13102;SDS011;52970;46.752;17.108;2022-08-03T12:34:21;1.88;;;1.77;;
13102;SDS011;52970;46.752;17.108;2022-08-03T12:36:51;1.88;;;1.77;;
13102;SDS011;52970;46.752;17.108;2022-08-03T12:39:16;2.10;;;2.00;;
13102;SDS011;52970;46.752;17.108;2022-08-03T12:41:41;2.13;;;2.00;;
13102;SDS011;52970;46.752;17.108;2022-08-03T12:44:07;1.98;;;1.88;;
13102;SDS011;52970;46.752;17.108;2022-08-03T12:46:37;1.88;;;1.77;;
13102;SDS011;52970;46.752;17.108;2022-08-03T12:51:28;2.00;;;1.90;;
13102;SDS011;52970;46.752;17.108;2022-08-03T12:53:54;2.00;;;1.90;;
13102;SDS011;52970;46.752;17.108;2022-08-03T12:56:20;1.92;;;1.80;;
13102;SDS011;52970;46.752;17.108;2022-08-03T12:58:45;1.85;;;1.75;;
13102;SDS011;52970;46.752;17.108;2022-08-03T13:01:12;2.30;;;2.10;;
13102;SDS011;52970;46.752;17.108;2022-08-03T13:03:38;2.10;;;2.00;;
13102;SDS011;52970;46.752;17.108;2022-08-03T13:06:09;2.00;;;1.90;;
13102;SDS011;52970;46.752;17.108;2022-08-03T13:08:34;2.00;;;1.90;;
13102;SDS011;52970;46.752;17.108;2022-08-03T13:11:16;1.73;;;1.67;;
13102;SDS011;52970;46.752;17.108;2022-08-03T13:13:41;2.00;;;1.90;;
13102;SDS011;52970;46.752;17.108;2022-08-03T13:16:06;2.58;;;1.77;;
13102;SDS011;52970;46.752;17.108;2022-08-03T13:18:31;2.10;;;2.00;;
13102;SDS011;52970;46.752;17.108;2022-08-03T13:20:57;2.20;;;2.10;;
13102;SDS011;52970;46.752;17.108;2022-08-03T13:23:22;2.42;;;2.28;;
13102;SDS011;52970;46.752;17.108;2022-08-03T13:25:47;2.20;;;2.00;;
13102;SDS011;52970;46.752;17.108;2022-08-03T13:28:12;2.05;;;1.88;;
13102;SDS011;52970;46.752;17.108;2022-08-03T13:30:38;2.23;;;1.90;;
13102;SDS011;52970;46.752;17.108;2022-08-03T13:33:03;2.45;;;2.25;;
13102;SDS011;52970;46.752;17.108;2022-08-03T13:35:28;2.33;;;2.13;;
13102;SDS011;52970;46.752;17.108;2022-08-03T13:37:54;2.38;;;2.17;;
13102;SDS011;52970;46.752;17.108;2022-08-03T13:40:19;2.45;;;2.22;;
13102;SDS011;52970;46.752;17.108;2022-08-03T13:42:45;2.28;;;2.13;;
13102;SDS011;52970;46.752;17.108;2022-08-03T13:45:10;3.13;;;1.75;;
13102;SDS011;52970;46.752;17.108;2022-08-03T13:47:35;2.40;;;1.90;;
13102;SDS011;52970;46.752;17.108;2022-08-03T13:50:02;2.22;;;1.98;;
13102;SDS011;52970;46.752;17.108;2022-08-03T13:52:31;2.15;;;2.05;;
13102;SDS011;52970;46.752;17.108;2022-08-03T13:54:56;2.75;;;2.00;;
13102;SDS011;52970;46.752;17.108;2022-08-03T13:57:22;3.72;;;2.15;;
13102;SDS011;52970;46.752;17.108;2022-08-03T13:59:48;2.03;;;1.90;;
13102;SDS011;52970;46.752;17.108;2022-08-03T14:02:14;2.08;;;1.98;;
13102;SDS011;52970;46.752;17.108;2022-08-03T14:04:40;2.20;;;1.90;;
13102;SDS011;52970;46.752;17.108;2022-08-03T14:07:05;2.08;;;1.90;;
13102;SDS011;52970;46.752;17.108;2022-08-03T14:09:30;2.05;;;1.95;;
13102;SDS011;52970;46.752;17.108;2022-08-03T14:11:55;2.22;;;2.13;;
13102;SDS011;52970;46.752;17.108;2022-08-03T14:14:21;1.98;;;1.88;;
13102;SDS011;52970;46.752;17.108;2022-08-03T14:16:46;2.00;;;1.90;;
13102;SDS011;52970;46.752;17.108;2022-08-03T14:19:11;2.25;;;2.10;;
13102;SDS011;52970;46.752;17.108;2022-08-03T14:21:43;2.28;;;2.08;;
13102;SDS011;52970;46.752;17.108;2022-08-03T14:24:11;1.83;;;1.73;;
13102;SDS011;52970;46.752;17.108;2022-08-03T14:26:36;2.08;;;1.98;;
13102;SDS011;52970;46.752;17.108;2022-08-03T14:29:02;2.65;;;2.10;;
13102;SDS011;52970;46.752;17.108;2022-08-03T14:31:28;1.98;;;1.88;;
13102;SDS011;52970;46.752;17.108;2022-08-03T14:33:54;2.33;;;2.03;;
13102;SDS011;52970;46.752;17.108;2022-08-03T14:36:19;2.63;;;2.15;;
13102;SDS011;52970;46.752;17.108;2022-08-03T14:38:44;2.38;;;1.90;;
13102;SDS011;52970;46.752;17.108;2022-08-03T14:41:10;1.90;;;1.80;;
13102;SDS011;52970;46.752;17.108;2022-08-03T14:43:35;2.00;;;1.85;;
13102;SDS011;52970;46.752;17.108;2022-08-03T14:46:00;3.00;;;2.10;;
13102;SDS011;52970;46.752;17.108;2022-08-03T14:48:26;1.73;;;1.63;;
13102;SDS011;52970;46.752;17.108;2022-08-03T14:50:51;2.67;;;2.47;;
13102;SDS011;52970;46.752;17.108;2022-08-03T14:53:16;1.90;;;1.80;;
13102;SDS011;52970;46.752;17.108;2022-08-03T14:55:42;1.90;;;1.80;;
13102;SDS011;52970;46.752;17.108;2022-08-03T14:58:08;1.92;;;1.83;;
13102;SDS011;52970;46.752;17.108;2022-08-03T15:00:33;1.65;;;1.63;;
13102;SDS011;52970;46.752;17.108;2022-08-03T15:02:59;1.85;;;1.75;;
13102;SDS011;52970;46.752;17.108;2022-08-03T15:05:24;1.90;;;1.80;;
13102;SDS011;52970;46.752;17.108;2022-08-03T15:07:50;2.85;;;2.10;;
13102;SDS011;52970;46.752;17.108;2022-08-03T15:10:15;4.78;;;2.30;;
13102;SDS011;52970;46.752;17.108;2022-08-03T15:12:40;2.28;;;2.10;;
13102;SDS011;52970;46.752;17.108;2022-08-03T15:15:06;1.95;;;1.85;;
13102;SDS011;52970;46.752;17.108;2022-08-03T15:17:31;1.95;;;1.85;;
13102;SDS011;52970;46.752;17.108;2022-08-03T15:19:56;3.08;;;2.20;;
13102;SDS011;52970;46.752;17.108;2022-08-03T15:22:22;2.25;;;2.05;;
13102;SDS011;52970;46.752;17.108;2022-08-03T15:24:47;1.67;;;1.58;;
13102;SDS011;52970;46.752;17.108;2022-08-03T15:27:12;1.83;;;1.73;;